Aérodrome :
LOGIN :

S'inscrire | Disclaimer

   EN    FR    IT 

 










Légende :    VFR   VFR Marginal   IFR   IFR Intensif   IFR Très Intensif
Visi : 
Plafond : 
>= 8 km
>= 3000ft
5 à 8 km
1000 à 3000 ft
1500m à 5 km
500 à 1000 ft
800 à 1500m
200 à 500 ft
< 800m
< 200 ft
Symboles :   Orages  Brouillard  Fortes neiges  Fortes précipitations  Vent > 20 kt
SIGMETs :   Divers  Orages  Givrage  Turbulence  Onde Orograph.  Cendres Volcan.







- Altitude de l'aérodrome : 256 ft
- Code IATA : CFR
- Voir les cartes d'approche


LFRK - Caen

DERNIER METAR :
  • 151430Z AUTO 15008KT CAVOK 21/14 Q1010 NOSIG

METARs EXPIRÉS :
  • 151400Z AUTO 16007KT 140V200 CAVOK 21/14 Q1010 NOSIG
  • 151330Z AUTO 15008KT 120V180 CAVOK 20/13 Q1010 NOSIG
  • 151300Z AUTO 14008KT 100V170 CAVOK 19/13 Q1010 NOSIG
  • 151230Z AUTO 16009KT 9999 FEW023 19/12 Q1010 NOSIG
  • 151200Z AUTO 16008KT 130V190 CAVOK 18/13 Q1010 NOSIG
  • 151130Z AUTO 15008KT 130V190 9999 FEW020 18/13 Q1010 NOSIG

TAF TAF LFRK
Valide du 15 à 15h jusqu'au 16 à 00h UTC


151400Z 1515/1524 VRB05KT CAVOK
TEMPO 1520/1524 3000 BR
Météo : +33 2 31 26 68 11
Pas de NOTAMs connus pour ce terrain.



MET'MAP, la Météo Aéronautique d'un coup d'oeil ! - Copyright ORBIFLY Décembre 2007 - Disclaimer

ORBIFLY MET'MAP TEAM :

Programmation & Développement : Alexandra Zaïnal
Conception & Développement : Baudouin d'Aumeries
Co-Programmation & Développement : Marc-Olivier Méhu
Soutien technique & logistique : Manuel Goepfert

Contact : metmap@orbifly.com




SOURCES & CREDITS :

   NOAA